createdAt,value
2023-01-17T00:01:08.173Z,40.50
2023-01-17T00:04:13.476Z,31.50
2023-01-17T00:07:17.210Z,30.60
2023-01-17T00:10:21.531Z,28.70
2023-01-17T00:13:23.250Z,45.50
2023-01-17T00:16:24.831Z,42.30
2023-01-17T00:19:26.550Z,33.40
2023-01-17T00:22:29.910Z,33.30
2023-01-17T00:25:37.675Z,25.60
2023-01-17T00:28:40.649Z,24.20
2023-01-17T00:31:42.212Z,25.00
2023-01-17T00:34:43.891Z,25.50
2023-01-17T00:37:45.456Z,24.90
2023-01-17T00:40:48.154Z,28.70
2023-01-17T00:43:49.847Z,28.80
2023-01-17T00:46:51.408Z,23.00
2023-01-17T00:49:53.021Z,23.30
2023-01-17T00:52:54.569Z,21.80
2023-01-17T00:55:56.256Z,23.00
2023-01-17T00:58:57.794Z,22.00
2023-01-17T01:01:59.532Z,23.10
2023-01-17T01:05:01.813Z,22.70
2023-01-17T01:08:04.143Z,22.90
2023-01-17T01:11:07.609Z,22.60
2023-01-17T01:14:10.418Z,27.40
2023-01-17T01:17:12.027Z,32.70
2023-01-17T01:20:13.688Z,29.20
2023-01-17T01:23:15.365Z,28.00
2023-01-17T01:26:17.041Z,29.00
2023-01-17T01:29:18.956Z,29.70
2023-01-17T01:32:20.567Z,30.10
2023-01-17T01:35:23.457Z,28.20
2023-01-17T01:38:25.606Z,25.80
2023-01-17T01:41:27.361Z,21.10
2023-01-17T01:44:58.664Z,21.90
2023-01-17T01:48:35.823Z,20.50
2023-01-17T01:51:45.045Z,17.30
2023-01-17T01:54:50.254Z,19.30
2023-01-17T01:57:55.181Z,16.60
2023-01-17T02:00:56.937Z,18.20
2023-01-17T02:07:04.617Z,18.70
2023-01-17T02:10:06.399Z,21.70
2023-01-17T02:16:29.751Z,20.10
2023-01-17T02:19:50.617Z,31.00
2023-01-17T02:23:20.099Z,22.20
2023-01-17T02:26:42.630Z,26.20
2023-01-17T02:30:09.433Z,22.60
2023-01-17T02:33:17.267Z,20.70
2023-01-17T02:36:38.227Z,22.60
2023-01-17T02:39:50.973Z,22.20
2023-01-17T02:42:58.525Z,20.50
2023-01-17T02:46:00.427Z,20.50
2023-01-17T02:49:02.079Z,20.80
2023-01-17T02:52:34.335Z,23.70
2023-01-17T02:56:17.702Z,21.30
2023-01-17T02:59:30.571Z,21.00
2023-01-17T03:02:42.957Z,27.40
2023-01-17T03:05:54.684Z,23.00
2023-01-17T03:08:56.479Z,20.70
2023-01-17T03:15:00.219Z,23.40
2023-01-17T03:21:05.951Z,20.10
2023-01-17T03:24:07.781Z,19.50
2023-01-17T03:30:11.838Z,22.10
2023-01-17T03:33:13.697Z,22.40
2023-01-17T03:36:15.364Z,21.10
2023-01-17T03:39:16.944Z,20.90
2023-01-17T03:42:18.688Z,20.90
2023-01-17T03:45:20.245Z,18.40
2023-01-17T03:48:21.875Z,20.10
2023-01-17T03:51:23.591Z,18.00
2023-01-17T03:54:25.121Z,19.00
2023-01-17T03:57:26.714Z,18.20
2023-01-17T04:00:28.262Z,19.10
2023-01-17T04:03:30.078Z,17.10
2023-01-17T04:06:31.666Z,15.60
2023-01-17T04:09:33.240Z,16.70
2023-01-17T04:12:34.826Z,22.60
2023-01-17T04:15:36.431Z,22.20
2023-01-17T04:18:38.110Z,26.20
2023-01-17T04:24:41.507Z,23.10
2023-01-17T04:27:43.071Z,20.90
2023-01-17T04:30:44.596Z,20.90
2023-01-17T04:33:46.195Z,18.20
2023-01-17T04:36:47.866Z,19.40
2023-01-17T04:39:49.466Z,20.70
2023-01-17T04:42:51.171Z,20.10
2023-01-17T04:45:56.920Z,20.70
2023-01-17T04:48:58.528Z,17.20
2023-01-17T04:52:00.248Z,17.00
2023-01-17T04:55:01.960Z,19.60
2023-01-17T05:01:07.565Z,18.90
2023-01-17T05:04:09.530Z,19.50
2023-01-17T05:07:11.370Z,18.00
2023-01-17T05:13:15.180Z,21.30
2023-01-17T05:16:19.870Z,20.10
2023-01-17T05:19:22.430Z,18.30
2023-01-17T05:22:24.251Z,21.10
2023-01-17T05:31:29.637Z,21.00
2023-01-17T05:34:31.518Z,21.70
2023-01-17T05:40:34.831Z,22.10
2023-01-17T05:46:38.009Z,21.50
2023-01-17T05:52:41.521Z,35.40
2023-01-17T05:55:43.759Z,27.30
2023-01-17T05:58:45.332Z,25.60
2023-01-17T06:01:46.851Z,40.30
2023-01-17T06:04:48.404Z,21.50
2023-01-17T06:07:50.250Z,19.40
2023-01-17T06:10:51.804Z,18.30
2023-01-17T06:13:53.415Z,21.80
2023-01-17T06:16:54.948Z,24.30
2023-01-17T06:19:56.509Z,18.80
2023-01-17T06:23:00.776Z,20.70
2023-01-17T06:26:03.662Z,18.40
2023-01-17T06:29:05.285Z,20.20
2023-01-17T06:32:06.812Z,19.70
2023-01-17T06:35:08.717Z,15.80
2023-01-17T06:38:10.615Z,16.70
2023-01-17T06:44:13.705Z,18.90
2023-01-17T06:47:15.706Z,15.70
2023-01-17T06:50:17.237Z,21.70
2023-01-17T06:53:18.876Z,17.40
2023-01-17T06:56:20.923Z,21.70
2023-01-17T06:59:22.545Z,20.10
2023-01-17T07:02:24.224Z,20.80
2023-01-17T07:05:25.914Z,22.20
2023-01-17T07:08:27.698Z,21.40
2023-01-17T07:14:31.318Z,30.00
2023-01-17T07:17:34.595Z,23.50
2023-01-17T07:20:36.454Z,23.40
2023-01-17T07:23:38.178Z,21.80
2023-01-17T07:29:41.615Z,26.80
2023-01-17T07:32:43.190Z,23.40
2023-01-17T07:35:45.068Z,27.20
2023-01-17T07:41:48.395Z,27.80
2023-01-17T07:44:50.113Z,32.50
2023-01-17T07:50:54.142Z,21.10
2023-01-17T07:53:55.799Z,29.00
2023-01-17T07:56:57.390Z,59.20
2023-01-17T07:59:59.204Z,65.90
2023-01-17T08:03:01.221Z,62.50
2023-01-17T08:06:03.044Z,47.50
2023-01-17T08:09:04.832Z,41.90
2023-01-17T08:15:09.184Z,40.40
2023-01-17T08:18:11.019Z,36.40
2023-01-17T08:21:14.268Z,41.00
2023-01-17T08:24:15.936Z,42.00
2023-01-17T08:27:17.494Z,38.60
2023-01-17T08:30:19.252Z,43.20
2023-01-17T08:36:22.352Z,56.20
2023-01-17T08:39:24.114Z,48.60
2023-01-17T08:45:27.941Z,40.20
2023-01-17T08:48:29.704Z,39.70
2023-01-17T08:54:33.379Z,36.10
2023-01-17T08:57:34.876Z,36.60
2023-01-17T09:00:36.404Z,32.70
2023-01-17T09:03:40.762Z,28.60
2023-01-17T09:06:44.397Z,35.70
2023-01-17T09:09:46.352Z,32.20
2023-01-17T09:12:48.084Z,29.30
2023-01-17T09:15:49.756Z,32.80
2023-01-17T09:18:55.922Z,31.40
2023-01-17T09:21:57.598Z,34.80
2023-01-17T09:28:00.657Z,29.80
2023-01-17T09:31:07.133Z,29.60
2023-01-17T09:34:08.754Z,29.50
2023-01-17T09:37:10.329Z,30.70
2023-01-17T09:40:15.309Z,30.10
2023-01-17T09:43:41.032Z,32.00
2023-01-17T09:46:45.362Z,29.30
2023-01-17T09:49:47.339Z,30.30
2023-01-17T09:52:49.106Z,37.80
2023-01-17T09:59:33.188Z,37.70
2023-01-17T10:06:03.166Z,41.30
2023-01-17T10:09:33.253Z,37.10
2023-01-17T10:12:53.380Z,39.10
2023-01-17T10:16:17.843Z,40.40
2023-01-17T10:19:31.347Z,64.00
2023-01-17T10:22:42.053Z,63.70
2023-01-17T10:25:49.044Z,37.60
2023-01-17T10:28:52.804Z,38.50
2023-01-17T10:31:59.399Z,57.20
2023-01-17T10:35:06.341Z,38.00
2023-01-17T10:38:11.987Z,38.80
2023-01-17T10:41:22.452Z,37.30
2023-01-17T10:44:33.616Z,28.00
2023-01-17T10:47:37.431Z,27.00
2023-01-17T10:50:57.458Z,18.60
2023-01-17T10:54:08.447Z,15.50
2023-01-17T10:57:15.460Z,16.30
2023-01-17T11:00:25.832Z,13.40
2023-01-17T11:03:28.377Z,13.70
2023-01-17T11:06:30.122Z,15.10
2023-01-17T11:09:48.911Z,15.10
2023-01-17T11:12:50.513Z,15.90
2023-01-17T11:15:56.068Z,14.00
2023-01-17T11:19:17.876Z,16.20
2023-01-17T11:22:19.831Z,16.50
2023-01-17T11:25:22.119Z,15.80
2023-01-17T11:28:26.799Z,18.80
2023-01-17T11:31:28.441Z,18.40
2023-01-17T11:34:30.019Z,17.70
2023-01-17T11:37:31.885Z,16.70
2023-01-17T11:40:40.604Z,16.90
2023-01-17T11:43:57.627Z,19.30
2023-01-17T11:47:11.578Z,16.00
2023-01-17T11:50:24.802Z,15.70
2023-01-17T11:53:35.072Z,14.40
2023-01-17T11:56:37.097Z,17.40
2023-01-17T11:59:42.628Z,17.20
2023-01-17T12:03:14.848Z,17.80
2023-01-17T12:06:25.948Z,16.30
2023-01-17T12:09:32.728Z,17.40
2023-01-17T12:12:53.249Z,19.50
2023-01-17T12:16:30.813Z,20.30
2023-01-17T12:20:01.772Z,18.90
2023-01-17T12:23:14.376Z,19.30
2023-01-17T12:26:26.923Z,19.10
2023-01-17T12:29:55.481Z,16.60
2023-01-17T12:33:09.176Z,17.10
2023-01-17T12:36:28.191Z,19.30
2023-01-17T12:39:42.111Z,17.80
2023-01-17T12:42:54.408Z,16.30
2023-01-17T12:45:56.513Z,16.60
2023-01-17T12:49:03.097Z,19.20
2023-01-17T12:52:21.804Z,19.60
2023-01-17T12:56:02.438Z,18.60
2023-01-17T12:59:22.908Z,21.40
2023-01-17T13:02:54.897Z,20.50
2023-01-17T13:05:57.615Z,23.20
2023-01-17T13:09:01.151Z,20.60
2023-01-17T13:12:19.609Z,20.60
2023-01-17T13:15:27.362Z,20.30
2023-01-17T13:18:29.385Z,16.20
2023-01-17T13:21:34.713Z,17.40
2023-01-17T13:24:44.869Z,21.40
2023-01-17T13:28:15.988Z,19.80
2023-01-17T13:31:33.917Z,22.10
2023-01-17T13:35:10.088Z,30.10
2023-01-17T13:38:34.648Z,24.40
2023-01-17T13:41:51.390Z,21.60
2023-01-17T13:44:53.313Z,23.80
2023-01-17T13:48:19.594Z,23.80
2023-01-17T13:52:01.656Z,29.30
2023-01-17T13:58:28.867Z,26.10
2023-01-17T14:01:33.725Z,26.50
2023-01-17T14:05:07.055Z,24.40
2023-01-17T14:08:15.784Z,27.40
2023-01-17T14:11:17.378Z,23.90
2023-01-17T14:14:45.583Z,20.20
2023-01-17T14:17:51.284Z,24.80
2023-01-17T14:21:06.992Z,21.40
2023-01-17T14:24:11.575Z,21.50
2023-01-17T14:27:22.036Z,22.90
2023-01-17T14:30:28.491Z,20.70
2023-01-17T14:33:34.997Z,19.80
2023-01-17T14:36:36.677Z,18.40
2023-01-17T14:39:46.669Z,18.70
2023-01-17T14:42:56.562Z,17.70
2023-01-17T14:46:02.004Z,14.90
2023-01-17T14:49:22.993Z,19.40
2023-01-17T14:52:24.640Z,17.40
2023-01-17T14:58:29.313Z,15.40
2023-01-17T15:01:31.344Z,16.90
2023-01-17T15:04:32.996Z,18.30
2023-01-17T15:10:49.296Z,14.70
2023-01-17T15:13:53.506Z,17.00
2023-01-17T15:16:55.281Z,17.80
2023-01-17T15:19:59.664Z,17.30
2023-01-17T15:23:04.238Z,20.80
2023-01-17T15:29:13.451Z,20.00
2023-01-17T15:32:25.723Z,19.40
2023-01-17T15:35:27.367Z,32.50
2023-01-17T15:41:40.029Z,25.50
2023-01-17T15:44:48.512Z,24.30
2023-01-17T15:47:56.933Z,27.60
2023-01-17T15:50:58.635Z,30.50
2023-01-17T15:54:00.437Z,34.40
2023-01-17T15:57:15.804Z,35.40
2023-01-17T16:00:29.455Z,34.10
2023-01-17T16:03:31.242Z,29.20
2023-01-17T16:06:38.368Z,43.10
2023-01-17T16:09:42.460Z,40.60
2023-01-17T16:12:48.487Z,41.30
2023-01-17T16:15:51.265Z,51.10
2023-01-17T16:18:58.509Z,40.80
2023-01-17T16:22:00.401Z,37.40
2023-01-17T16:25:02.085Z,40.50
2023-01-17T16:28:04.442Z,56.90
2023-01-17T16:31:06.229Z,58.20
2023-01-17T16:34:10.808Z,99.10
2023-01-17T16:37:12.545Z,68.20
2023-01-17T16:40:14.155Z,105.50
2023-01-17T16:43:17.643Z,226.90
2023-01-17T16:46:20.711Z,143.40
2023-01-17T16:49:22.362Z,111.90
2023-01-17T16:55:25.878Z,98.00
2023-01-17T17:01:29.059Z,136.40
2023-01-17T17:04:30.809Z,109.00
2023-01-17T17:07:32.452Z,85.80
2023-01-17T17:10:33.978Z,100.40
2023-01-17T17:13:36.390Z,97.80
2023-01-17T17:16:38.628Z,91.00
2023-01-17T17:19:40.445Z,80.20
2023-01-17T17:25:43.690Z,58.70
2023-01-17T17:28:45.215Z,62.00
2023-01-17T17:31:46.783Z,96.50
2023-01-17T17:34:48.470Z,98.30
2023-01-17T17:37:50.235Z,94.60
2023-01-17T17:40:52.005Z,82.60
2023-01-17T17:43:54.598Z,80.80
2023-01-17T17:46:56.196Z,78.90
2023-01-17T17:49:57.863Z,65.40
2023-01-17T17:52:59.455Z,63.40
2023-01-17T17:56:05.711Z,60.10
2023-01-17T17:59:08.765Z,52.00
2023-01-17T18:02:10.898Z,63.10
2023-01-17T18:05:12.564Z,100.10
2023-01-17T18:08:14.158Z,97.60
2023-01-17T18:11:19.706Z,79.40
2023-01-17T18:14:21.336Z,76.70
2023-01-17T18:17:22.915Z,77.00
2023-01-17T18:20:24.600Z,83.60
2023-01-17T18:23:26.273Z,73.90
2023-01-17T18:26:29.894Z,67.20
2023-01-17T18:29:31.958Z,76.80
2023-01-17T18:32:33.614Z,74.30
2023-01-17T18:35:35.239Z,87.60
2023-01-17T18:41:43.163Z,81.80
2023-01-17T18:44:44.692Z,70.70
2023-01-17T18:47:46.268Z,55.80
2023-01-17T18:50:56.067Z,46.80
2023-01-17T18:53:57.835Z,50.80
2023-01-17T18:56:59.547Z,51.90
2023-01-17T19:00:01.282Z,55.20
2023-01-17T19:03:02.923Z,60.80
2023-01-17T19:06:05.700Z,63.10
2023-01-17T19:09:08.475Z,73.60
2023-01-17T19:12:10.172Z,74.50
2023-01-17T19:15:11.888Z,74.00
2023-01-17T19:18:13.632Z,81.20
2023-01-17T19:21:17.919Z,80.50
2023-01-17T19:24:19.469Z,79.60
2023-01-17T19:27:21.589Z,71.10
2023-01-17T19:30:23.468Z,64.40
2023-01-17T19:33:25.089Z,67.50
2023-01-17T19:39:36.075Z,81.00
2023-01-17T19:42:37.690Z,81.40
2023-01-17T19:45:39.329Z,69.20
2023-01-17T19:48:40.976Z,59.80
2023-01-17T19:51:42.694Z,51.60
2023-01-17T19:54:44.496Z,49.50
2023-01-17T20:00:48.097Z,55.70
2023-01-17T20:03:51.817Z,52.40
2023-01-17T20:06:53.637Z,50.10
2023-01-17T20:09:55.424Z,49.90
2023-01-17T20:16:03.564Z,47.10
2023-01-17T20:19:05.399Z,50.90
2023-01-17T20:22:07.382Z,47.50
2023-01-17T20:25:11.499Z,45.40
2023-01-17T20:28:13.975Z,40.90
2023-01-17T20:31:18.880Z,42.00
2023-01-17T20:34:21.318Z,37.60
2023-01-17T20:37:22.992Z,43.30
2023-01-17T20:43:26.046Z,43.40
2023-01-17T20:46:32.708Z,40.80
2023-01-17T20:49:34.404Z,40.10
2023-01-17T20:52:36.066Z,42.70
2023-01-17T20:55:37.640Z,41.40
2023-01-17T20:58:39.602Z,40.90
2023-01-17T21:01:41.806Z,38.60
2023-01-17T21:04:43.417Z,37.90
2023-01-17T21:08:05.004Z,36.00
2023-01-17T21:17:10.531Z,38.70
2023-01-17T21:20:12.546Z,40.70
2023-01-17T21:23:14.643Z,41.60
2023-01-17T21:26:17.678Z,40.10
2023-01-17T21:29:21.597Z,44.90
2023-01-17T21:32:23.648Z,38.60
2023-01-17T21:35:43.569Z,38.50
2023-01-17T21:38:53.112Z,37.30
2023-01-17T21:41:54.868Z,49.00
2023-01-17T21:44:56.444Z,49.70
2023-01-17T21:47:59.152Z,47.20
2023-01-17T21:51:05.625Z,42.50
2023-01-17T21:54:08.431Z,40.30
2023-01-17T21:57:11.447Z,41.20
2023-01-17T22:00:14.095Z,48.40
2023-01-17T22:03:15.685Z,52.10
2023-01-17T22:06:18.765Z,48.20
2023-01-17T22:09:20.415Z,45.90
2023-01-17T22:12:22.058Z,39.80
2023-01-17T22:15:23.815Z,37.80
2023-01-17T22:21:28.428Z,36.00
2023-01-17T22:24:29.985Z,35.70
2023-01-17T22:27:31.711Z,35.90
2023-01-17T22:33:35.872Z,40.00
2023-01-17T22:36:37.636Z,36.80
2023-01-17T22:42:41.033Z,37.50
2023-01-17T22:45:42.618Z,37.20
2023-01-17T22:48:44.913Z,37.40
2023-01-17T22:51:46.806Z,38.90
2023-01-17T22:54:48.547Z,39.60
2023-01-17T23:00:51.534Z,45.70
2023-01-17T23:03:56.049Z,36.70
2023-01-17T23:06:57.637Z,45.10
2023-01-17T23:09:59.620Z,44.50
2023-01-17T23:13:01.331Z,40.40
2023-01-17T23:19:08.255Z,42.80
2023-01-17T23:22:12.891Z,43.30
2023-01-17T23:25:14.734Z,45.90
2023-01-17T23:28:16.418Z,42.30
2023-01-17T23:34:19.865Z,40.90
2023-01-17T23:37:21.915Z,38.70
2023-01-17T23:40:23.569Z,39.00
2023-01-17T23:46:27.246Z,37.30
2023-01-17T23:49:28.869Z,38.50
2023-01-17T23:52:30.514Z,35.80
2023-01-17T23:55:32.836Z,31.70
2023-01-17T23:58:34.595Z,32.50
